Latest Coastal Weather Observations for Troughton Island

IDW60701

Issued at 8:33 pm WST Sunday 9 August 2020 (issued every 10 minutes, with the page automatically refreshed every 10 minutes)

About coastal observations | Map of coastal stations | Coastal observations for WA | Marine services | Other Formats
Station Details ID: 001007 Name: TROUGHTON ISLAND Lat: -13.75 Lon: 126.15 Height: 6.0 m
Data from the previous 72 hours. | See also: Recent months at Troughton Island
Date/Time
WST
Wind Sea
Height
m
Swell Vis
km
Cloud Weather Temp
°C
Press
hPa
Rain since
9am
mm
Dir  Spd
kts
Gust
kts
Height
m
Period
s
Dir
09/08:30pm NE 11 15 - - - - - - - 24.4 1013.9 0.0
09/08:00pm NE 12 15 - - - - - - - 24.6 1013.9 0.0
09/07:30pm NE 12 16 - - - - - - - 24.8 1013.8 0.0
09/07:00pm NE 13 16 - - - - - - - 24.8 1013.5 0.0
09/06:30pm NE 11 15 - - - - - - - 24.9 1013.2 0.0
09/06:00pm NE 12 14 - - - - - - - 25.1 1012.9 0.0
09/05:30pm ENE 11 14 - - - - - - - 25.3 1012.7 0.0
09/05:00pm ENE 11 14 - - - - - - - 25.9 1012.7 0.0
09/04:30pm ENE 13 17 - - - - - - - 26.2 1012.5 0.0
09/04:00pm ENE 14 17 - - - - - - - 26.8 1012.4 0.0
09/03:30pm ENE 16 19 - - - - - - - 27.1 1012.5 0.0
09/03:00pm ENE 15 19 - - - - - - - 27.4 1012.4 0.0
09/02:30pm ENE 15 20 - - - - - - - 27.6 1012.5 0.0
09/02:00pm ENE 17 21 - - - - - - - 27.5 1012.6 0.0
09/01:30pm ENE 18 22 - - - - - - - 27.4 1012.8 0.0
09/01:00pm ENE 16 20 - - - - - - - 27.4 1013.1 0.0
09/12:30pm E 11 15 - - - - - - - 28.0 1013.5 0.0
09/12:00pm ENE 9 11 - - - - - - - 27.6 1014.0 0.0
09/11:30am E 9 11 - - - - - - - 27.3 1014.6 0.0
09/11:00am E 12 15 - - - - - - - 27.0 1014.9 0.0
09/10:30am ESE 12 15 - - - - - - - 27.2 1015.1 0.0
09/10:00am ESE 12 14 - - - - - - - 27.6 1015.2 0.0
09/09:30am ESE 11 14 - - - - - - - 26.3 1015.5 0.0
09/09:00am ESE 12 15 - - - - - - - 27.0 1015.5 0.0
09/08:30am ESE 11 14 - - - - - - - 26.7 1015.5 0.0
09/08:00am ESE 10 12 - - - - - - - 26.1 1015.4 0.0
09/07:30am SE 11 13 - - - - - - - 25.3 1015.2 0.0
09/07:00am SE 9 11 - - - - - - - 24.6 1014.9 0.0
09/06:30am SE 8 9 - - - - - - - 24.2 1014.6 0.0
09/06:00am SSE 9 11 - - - - - - - 23.0 1014.3 0.0
09/05:30am SSE 9 11 - - - - - - - 22.9 1014.1 0.0
09/05:00am SSE 9 10 - - - - - - - 22.7 1014.0 0.0
09/04:30am SSE 9 11 - - - - - - - 22.3 1013.7 0.0
09/04:00am SSE 8 9 - - - - - - - 22.2 1013.7 0.0
09/03:30am SSE 7 8 - - - - - - - 22.1 1013.6 0.0
09/03:00am SSE 7 7 - - - - - - - 22.0 1013.5 0.0
09/02:30am SSE 6 6 - - - - - - - 22.2 1013.6 0.0
09/02:00am ESE 5 6 - - - - - - - 23.1 1013.6 0.0
09/01:30am E 5 6 - - - - - - - 23.2 1013.6 0.0
09/01:00am E 6 7 - - - - - - - 23.3 1013.9 0.0
09/12:30am E 6 7 - - - - - - - 23.9 1014.0 0.0
09/12:00am ENE 7 8 - - - - - - - 24.0 1014.0 0.0
 
Date/Time
WST
Wind Sea
Height
m
Swell Vis
km
Cloud Weather Temp
°C
Press
hPa
Rain since
9am
mm
Dir  Spd
kts
Gust
kts
Height
m
Period
s
Dir
08/11:30pm ENE 7 8 - - - - - - - 24.1 1014.1 0.0
08/11:00pm NE 8 10 - - - - - - - 23.9 1014.3 0.0
08/10:30pm ENE 7 8 - - - - - - - 24.0 1014.3 0.0
08/10:00pm ENE 7 8 - - - - - - - 24.0 1014.4 0.0
08/09:30pm ENE 7 9 - - - - - - - 24.2 1014.5 0.0
08/09:00pm ENE 8 9 - - - - - - - 24.3 1014.4 0.0
08/08:30pm NE 9 11 - - - - - - - 24.5 1014.2 0.0
08/08:00pm NE 10 13 - - - - - - - 24.5 1014.0 0.0
08/07:30pm ENE 11 14 - - - - - - - 24.7 1013.7 0.0
08/07:00pm ENE 10 13 - - - - - - - 24.7 1013.5 0.0
08/06:30pm ENE 11 14 - - - - - - - 24.8 1013.1 0.0
08/06:00pm NE 15 17 - - - - - - - 24.8 1012.8 0.0
08/05:30pm ENE 13 16 - - - - - - - 25.0 1012.6 0.0
08/05:00pm ENE 13 16 - - - - - - - 25.4 1012.4 0.0
08/04:30pm ENE 13 17 - - - - - - - 25.7 1012.2 0.0
08/04:00pm ENE 13 17 - - - - - - - 26.1 1012.1 0.0
08/03:30pm ENE 12 17 - - - - - - - 26.5 1012.1 0.0
08/03:00pm ENE 13 17 - - - - - - - 26.8 1012.1 0.0
08/02:30pm ENE 10 13 - - - - - - - 27.1 1012.2 0.0
08/02:00pm E 9 11 - - - - - - - 27.5 1012.2 0.0
08/01:30pm E 6 8 - - - - - - - 27.5 1012.5 0.0
08/01:00pm E 7 8 - - - - - - - 27.1 1012.9 0.0
08/12:30pm E 9 11 - - - - - - - 27.7 1013.2 0.0
08/12:00pm E 10 13 - - - - - - - 27.7 1013.6 0.0
08/11:30am ESE 11 14 - - - - - - - 28.0 1013.9 0.0
08/11:00am ESE 12 15 - - - - - - - 27.7 1014.2 0.0
08/10:30am ESE 13 17 - - - - - - - 27.3 1014.7 0.0
08/10:00am ESE 14 19 - - - - - - - 26.7 1014.8 0.0
08/09:30am ESE 13 16 - - - - - - - 26.1 1014.8 0.0
08/09:00am ESE 11 13 - - - - - - - 25.9 1015.0 0.0
08/08:30am ESE 12 15 - - - - - - - 25.8 1015.0 0.0
08/08:00am ESE 7 9 - - - - - - - 25.3 1014.6 0.0
08/07:30am ESE 6 8 - - - - - - - 25.0 1014.5 0.0
08/07:00am ESE 6 7 - - - - - - - 24.6 1014.2 0.0
08/06:30am SE 6 7 - - - - - - - 23.2 1014.1 0.0
08/06:00am SE 7 9 - - - - - - - 22.2 1013.7 0.0
08/05:30am SE 9 10 - - - - - - - 22.5 1013.5 0.0
08/05:00am SE 11 13 - - - - - - - 23.0 1013.2 0.0
08/04:30am SE 9 10 - - - - - - - 22.6 1013.2 0.0
08/04:00am SE 8 9 - - - - - - - 22.2 1013.1 0.0
08/03:30am SSE 7 8 - - - - - - - 22.2 1013.1 0.0
08/03:00am SE 7 8 - - - - - - - 22.5 1013.1 0.0
08/02:30am SE 8 9 - - - - - - - 22.8 1013.0 0.0
08/02:00am SE 8 9 - - - - - - - 22.9 1013.1 0.0
08/01:30am ESE 7 9 - - - - - - - 23.4 1013.5 0.0
08/01:00am ESE 9 9 - - - - - - - 23.5 1013.6 0.0
08/12:30am E 11 13 - - - - - - - 24.3 1013.8 0.0
08/12:00am E 11 13 - - - - - - - 24.2 1014.0 0.0
 
Date/Time
WST
Wind Sea
Height
m
Swell Vis
km
Cloud Weather Temp
°C
Press
hPa
Rain since
9am
mm
Dir  Spd
kts
Gust
kts
Height
m
Period
s
Dir
07/11:30pm E 12 13 - - - - - - - 24.2 1014.0 0.0
07/11:00pm ENE 11 13 - - - - - - - 24.0 1014.2 0.0
07/10:30pm ENE 10 12 - - - - - - - 24.0 1014.3 0.0
07/10:00pm ENE 11 13 - - - - - - - 23.9 1014.3 0.0
07/09:30pm NE 11 13 - - - - - - - 23.8 1014.3 0.0
07/09:00pm NE 9 12 - - - - - - - 23.7 1014.3 0.0
07/08:30pm NE 9 11 - - - - - - - 23.6 1014.2 0.0
07/08:00pm NE 8 9 - - - - - - - 23.4 1013.8 0.0
07/07:30pm NE 8 10 - - - - - - - 23.5 1013.6 0.0
07/07:00pm NE 9 11 - - - - - - - 23.7 1013.3 0.0
07/06:30pm NE 10 12 - - - - - - - 23.9 1013.0 0.0
07/06:00pm NE 10 12 - - - - - - - 24.1 1012.8 0.0
07/05:30pm NE 9 12 - - - - - - - 24.3 1012.5 0.0
07/05:00pm NE 11 12 - - - - - - - 25.0 1012.3 0.0
07/04:30pm NE 11 14 - - - - - - - 25.6 1012.2 0.0
07/04:00pm NE 13 15 - - - - - - - 25.8 1012.1 0.0
07/03:30pm NE 13 15 - - - - - - - 26.5 1012.0 0.0
07/03:00pm NE 13 16 - - - - - - - 26.8 1011.9 0.0
07/02:30pm ENE 13 18 - - - - - - - 27.1 1012.0 0.0
07/02:00pm ENE 14 17 - - - - - - - 26.6 1012.1 0.0
07/01:30pm ENE 15 18 - - - - - - - 26.8 1012.1 0.0
07/01:00pm ENE 15 20 - - - - - - - 27.0 1012.4 0.0
07/12:30pm ENE 17 22 - - - - - - - 26.9 1012.7 0.0
07/12:00pm E 14 17 - - - - - - - 26.9 1012.9 0.0
07/11:30am ESE 12 15 - - - - - - - 27.5 1013.1 0.0
07/11:00am ESE 15 18 - - - - - - - 27.1 1013.2 0.0
07/10:30am SE 16 19 - - - - - - - 26.6 1013.4 0.0
07/10:00am SE 16 19 - - - - - - - 26.5 1013.6 0.0
07/09:30am SE 15 19 - - - - - - - 26.4 1013.8 0.0
07/09:00am SE 16 18 - - - - - - - 26.1 1013.9 0.0
07/08:30am SE 13 17 - - - - - - - 25.5 1013.8 0.0
07/08:00am SE 13 16 - - - - - - - 25.0 1013.6 0.0
07/07:30am SE 12 14 - - - - - - - 24.3 1013.4 0.0
07/07:00am SSE 11 14 - - - - - - - 24.2 1013.2 0.0
07/06:30am SSE 9 11 - - - - - - - 23.3 1012.9 0.0
07/06:00am S 9 11 - - - - - - - 23.1 1012.5 0.0
07/05:30am WSW 9 11 - - - - - - - 23.9 1012.1 0.0
07/05:00am W 8 9 - - - - - - - 23.8 1011.9 0.0
07/04:30am W 10 11 - - - - - - - 24.0 1011.7 0.0
07/04:00am W 11 13 - - - - - - - 24.2 1011.5 0.0
07/03:30am WNW 11 13 - - - - - - - 24.3 1011.3 0.0
07/03:00am WNW 11 14 - - - - - - - 24.1 1011.3 0.0
07/02:30am WNW 12 14 - - - - - - - 24.2 1011.3 0.0
07/02:00am WNW 12 14 - - - - - - - 24.3 1011.4 0.0
07/01:30am WNW 13 15 - - - - - - - 24.3 1011.3 0.0
07/01:00am WNW 13 16 - - - - - - - 24.4 1011.5 0.0
07/12:30am NW 14 16 - - - - - - - 24.3 1011.6 0.0
07/12:00am NW 13 15 - - - - - - - 24.2 1011.7 0.0
 
Date/Time
WST
Wind Sea
Height
m
Swell Vis
km
Cloud Weather Temp
°C
Press
hPa
Rain since
9am
mm
Dir  Spd
kts
Gust
kts
Height
m
Period
s
Dir
06/11:30pm NW 13 15 - - - - - - - 24.3 1011.9 0.0
06/11:00pm WNW 13 15 - - - - - - - 24.3 1011.9 0.0
06/10:30pm WNW 12 14 - - - - - - - 24.2 1011.9 0.0
06/10:00pm WNW 12 14 - - - - - - - 24.1 1011.9 0.0
06/09:30pm WNW 10 11 - - - - - - - 23.8 1011.7 0.0
06/09:00pm NW 9 10 - - - - - - - 23.7 1011.6 0.0

Other formats

Comma delimited format used in spreadsheet applications
http://www.bom.gov.au/fwo/IDW60701/IDW60701.94102.axf

JavaScript Object Notation format (JSON) in row-major order
http://www.bom.gov.au/fwo/IDW60701/IDW60701.94102.json

Data quality

Most of these data are generated automatically and are frequently updated. Quality checks on data are not normally performed. It is possible for incorrect values to appear. Refer to information at About Latest Weather Observations and please check the disclaimer before using these data.